Main page
METAR-TAF:

METAR-TAF

Airports :

Zumbi dos Palmares International Airport

Maceió, Alagoas, Brazil

latitude: 09-31S, longitude: 035-47W, elevation: 117 m

Current weather observation

The report was made 55 minutes ago, at 15:00 UTC
Wind 15 kt from the East/Southeast
Temperature 29°C
Humidity 55%
Pressure 1016 hPa
Visibility 10 km or more
Scattered clouds at a height of 3000 ft

METAR: SBMO 161500Z 11015KT 9999 SCT030 29/19 Q1016

Time: 12:55 (15:55 UTC)

Forecast

The report was made 5 hours and 55 minutes ago, at 10:00 UTC
Forecast valid from 16 at 12 UTC to 17 at 12 UTC
Wind 10 kt from the Southeast
Visibility 10 km or more
Scattered clouds at a height of 2000 ft
Becoming
from 16 at 13 UTC to 16 at 15 UTC
Wind 8 kt from the East
Broken clouds at a height of 3000 ft
Becoming
from 16 at 20 UTC to 16 at 22 UTC
Wind 8 kt from the East/Southeast
Few clouds at a height of 2000 ft

TAF: SBMO 161000Z 1612/1712 13010KT 9999 SCT020 TX29/1615Z TN22/1707Z BECMG 1613/1615 08008KT BKN030 BECMG 1620/1622 11008KT FEW020 RMK PEH

Weather observations and forecasts of more than 4000 airports (METAR and TAF reports).

The available stations are represented by yellow and red dots on the map.

Hover mouse over dot to see the name of the station.

Then click to see weather observations and forecasts.

To change the map : click on the green buttons with a black cross to zoom in, on the green button with a dash to zoom out, or on the green arrows for adjacent maps.


METAR-TAF: